LiveATC.Net - Listen to live air traffic control over the Internet!


ICAO: KGRK  IATA: GRK   Airport: Robert Gray Army Airfield
City: Fort Hood (Killeen)   State/Province: Texas
Country: United States   Continent: North America
KGRK METAR Weather: KGRK 182055Z 18004KT 8SM VCTS FEW040 25/21 A2993 RMK AO2A SLP125 60000 T02500211 50005
KGRK ADS-B Flight Tracking (ADSBExchange)
KGRK Flight Activity (FlightAware)
KGRK Airport Info   (iFlightPlanner)
KGRK VFR Sectional Chart   (iFlightPlanner) 
KGRK IFR Low Altitude Chart   (iFlightPlanner) 
KGRK IFR High Altitude Chart   (iFlightPlanner) 

KGRK Twr/App
Feed Status: DOWN
Last heard on: 2019-11-24 15:09:39 (998 days 5 hours 55 minutes ago)
Archive Access: KGRK Twr/App
FacilityFrequency
Gray Tower120.750

NOTICE

Unauthorized use prohibited. See LiveATC.net Terms of Service


Airport/ARTCC Code
Frequency Search
(e.g., 124.400, 128.75)
Site-wide search
 


Browse Feeds
Top 50 Feeds
HF Oceanic Feeds
Coverage Map
Bad Weather Areas

LiveATC FAQ
Offer LiveATC feed
Contact LiveATC.net
Press Inquiries

LiveATC on iPhone
LiveATC on Android

LiveATC Mobile
(Mobile browser)

ATC Audio Archives
Interesting Recordings

LiveATC Forums


Home Page
About LiveATC.net


Terms of Use
Privacy Policy

AIRMETs/SIGMETs

FAA Airport Status
NAS Status
Arrival Demand


Server Software By:
Icecast.org
Liquidsoap